Time;durP1;ratioP1;P1;durP2;ratioP2;P2;SDS_P1;SDS_P2;PMS_P1;PMS_P2;Temp;Humidity;BMP_temperature;BMP_pressure;BME280_temperature;BME280_humidity;BME280_pressure;Samples;Min_cycle;Max_cycle;Signal;HPM_P1;HPM_P2
2022/07/02 00:02:19;;;;;;;6.63;1.10;;;;;;;16.86;100.00;98151.09;5120153;27;20110;-96
2022/07/02 00:04:51;;;;;;;4.85;1.10;;;;;;;16.34;100.00;98154.22;5131904;27;20054;-95
2022/07/02 00:07:17;;;;;;;7.35;1.15;;;;;;;17.00;100.00;98155.78;5092689;28;20040;-96
2022/07/02 00:09:43;;;;;;;7.00;1.30;;;;;;;16.57;100.00;98168.16;5121323;27;20024;-96
2022/07/02 00:12:10;;;;;;;4.85;1.08;;;;;;;17.05;100.00;98152.97;5091512;28;20600;-96
2022/07/02 00:14:37;;;;;;;7.00;1.45;;;;;;;17.09;100.00;98156.28;5089282;28;20032;-96
2022/07/02 00:17:04;;;;;;;8.90;1.52;;;;;;;16.81;100.00;98142.56;5120204;27;20031;-96
2022/07/02 00:19:36;;;;;;;5.72;1.30;;;;;;;16.72;100.00;98140.34;5091723;28;20039;-96
2022/07/02 00:22:03;;;;;;;5.80;1.55;;;;;;;17.08;100.00;98146.66;5093696;28;20107;-96
2022/07/02 00:24:28;;;;;;;6.55;1.50;;;;;;;16.41;100.00;98141.66;5089036;28;20036;-95
2022/07/02 00:27:03;;;;;;;6.10;1.50;;;;;;;16.99;100.00;98145.31;5093453;28;20096;-96
2022/07/02 00:29:57;;;;;;;8.75;1.90;;;;;;;17.14;100.00;98141.13;5090673;28;20032;-96
2022/07/02 00:32:28;;;;;;;8.73;1.80;;;;;;;16.90;100.00;98136.06;5089666;27;20028;-96
2022/07/02 00:34:55;;;;;;;7.75;1.90;;;;;;;16.64;100.00;98143.28;5119691;27;20031;-96
2022/07/02 00:37:22;;;;;;;10.70;2.33;;;;;;;16.89;100.00;98147.50;5102221;27;20503;-96
2022/07/02 00:39:48;;;;;;;6.88;1.98;;;;;;;16.90;100.00;98138.69;5092712;28;20089;-95
2022/07/02 00:42:14;;;;;;;7.78;2.13;;;;;;;16.96;100.00;98130.50;5121129;27;20032;-95
2022/07/02 00:44:40;;;;;;;10.80;2.47;;;;;;;16.94;100.00;98127.09;5087061;28;20105;-93
2022/07/02 00:47:10;;;;;;;10.60;2.28;;;;;;;17.19;100.00;98125.97;5099263;28;20036;-94
2022/07/02 00:49:37;;;;;;;10.18;2.25;;;;;;;17.05;100.00;98135.38;5101695;28;20036;-94
2022/07/02 00:52:04;;;;;;;8.70;2.20;;;;;;;17.07;100.00;98124.75;5089927;28;20028;-94
2022/07/02 00:54:30;;;;;;;8.00;2.10;;;;;;;17.09;100.00;98117.66;5103751;27;20040;-95
2022/07/02 00:56:57;;;;;;;8.57;2.38;;;;;;;16.77;100.00;98113.78;5099713;27;20078;-94
2022/07/02 00:59:25;;;;;;;7.88;1.95;;;;;;;16.65;100.00;98125.72;5091217;28;20130;-94
2022/07/02 01:01:52;;;;;;;8.52;2.40;;;;;;;16.88;100.00;98124.69;5093149;28;20111;-94
2022/07/02 01:04:19;;;;;;;8.52;2.63;;;;;;;17.09;100.00;98112.38;5088593;28;20016;-96
2022/07/02 01:06:48;;;;;;;8.88;1.90;;;;;;;16.88;100.00;98106.25;5092829;28;20134;-94
2022/07/02 01:12:02;;;;;;;7.53;2.30;;;;;;;16.87;100.00;98107.19;5092156;28;20059;-95
2022/07/02 01:14:28;;;;;;;7.43;2.00;;;;;;;17.14;100.00;98099.81;5091098;28;20064;-95
2022/07/02 01:16:55;;;;;;;9.90;2.42;;;;;;;16.89;100.00;98103.56;5092864;28;20042;-95
2022/07/02 01:19:22;;;;;;;8.20;1.98;;;;;;;16.55;100.00;98098.94;5089886;28;20103;-95
2022/07/02 01:22:14;;;;;;;6.30;1.90;;;;;;;16.80;100.00;98111.88;5093221;28;20545;-96
2022/07/02 01:24:40;;;;;;;8.98;2.03;;;;;;;16.94;100.00;98108.66;5103783;27;20021;-96
2022/07/02 01:27:06;;;;;;;8.48;1.95;;;;;;;16.84;100.00;98097.66;5093716;28;20072;-94
2022/07/02 01:29:32;;;;;;;8.40;2.08;;;;;;;16.99;100.00;98109.31;5109594;28;20042;-96
2022/07/02 01:31:57;;;;;;;6.85;1.70;;;;;;;16.79;100.00;98099.63;5089159;28;20028;-95
2022/07/02 01:34:23;;;;;;;7.22;1.67;;;;;;;16.81;100.00;98091.66;5110752;27;20813;-96
2022/07/02 01:36:49;;;;;;;8.60;1.70;;;;;;;16.56;100.00;98098.00;5093766;28;20052;-96
2022/07/02 01:39:24;;;;;;;6.53;1.80;;;;;;;16.87;100.00;98091.41;5093264;28;20245;-95
2022/07/02 01:41:51;;;;;;;8.52;1.80;;;;;;;16.23;100.00;98087.16;5107373;27;20047;-95
2022/07/02 01:44:17;;;;;;;6.43;1.50;;;;;;;16.40;100.00;98081.22;5113044;27;20036;-95
2022/07/02 01:46:44;;;;;;;6.88;1.65;;;;;;;16.46;100.00;98078.28;5095674;28;20479;-96
2022/07/02 01:49:10;;;;;;;6.75;1.52;;;;;;;16.45;100.00;98066.91;5093426;28;20054;-95
2022/07/02 01:51:35;;;;;;;8.20;1.52;;;;;;;16.20;100.00;98067.97;5094427;28;20028;-96
2022/07/02 01:54:01;;;;;;;6.55;1.35;;;;;;;16.34;100.00;98066.53;5091826;28;20040;-95
2022/07/02 01:56:31;;;;;;;6.72;1.40;;;;;;;16.58;100.00;98069.00;5112717;27;20115;-96
2022/07/02 01:58:56;;;;;;;7.65;1.58;;;;;;;15.95;100.00;98065.53;5108362;28;20029;-96
2022/07/02 02:01:22;;;;;;;8.90;1.50;;;;;;;16.25;100.00;98069.56;5091500;28;20044;-95
2022/07/02 02:03:48;;;;;;;6.10;1.30;;;;;;;15.99;100.00;98067.13;5093949;28;20029;-94
2022/07/02 02:06:13;;;;;;;4.43;1.13;;;;;;;15.86;100.00;98063.28;5091442;28;20688;-95
2022/07/02 02:08:39;;;;;;;5.97;1.40;;;;;;;16.31;100.00;98058.75;5090399;28;20056;-95
2022/07/02 02:11:04;;;;;;;5.97;1.33;;;;;;;15.91;100.00;98058.69;5109901;27;20051;-96
2022/07/02 02:13:34;;;;;;;8.27;1.33;;;;;;;15.95;100.00;98057.66;5090128;28;20024;-95
2022/07/02 02:16:00;;;;;;;8.38;1.55;;;;;;;15.96;100.00;98051.44;5089872;28;20032;-95
2022/07/02 02:18:26;;;;;;;7.68;1.50;;;;;;;15.93;100.00;98054.22;5092260;28;20067;-95
2022/07/02 02:20:52;;;;;;;9.23;1.55;;;;;;;15.88;100.00;98050.94;5093203;28;20472;-93
2022/07/02 02:23:18;;;;;;;5.22;1.42;;;;;;;15.43;100.00;98050.09;5091669;28;20028;-95
2022/07/02 02:25:45;;;;;;;7.93;1.58;;;;;;;15.78;100.00;98044.31;5090003;28;20020;-95
2022/07/02 02:28:11;;;;;;;6.00;1.40;;;;;;;16.17;100.00;98046.19;5102365;27;20043;-95
2022/07/02 02:30:36;;;;;;;8.63;1.85;;;;;;;15.83;100.00;98042.38;5092643;28;20140;-96
2022/07/02 02:33:13;;;;;;;6.80;1.50;;;;;;;15.50;100.00;98045.44;5091435;28;20084;-93
2022/07/02 02:35:40;;;;;;;11.10;1.60;;;;;;;15.75;100.00;98041.81;5092881;28;20341;-95
2022/07/02 02:38:06;;;;;;;9.23;2.13;;;;;;;15.73;100.00;98041.00;5096399;28;20833;-96
2022/07/02 02:40:32;;;;;;;8.95;1.90;;;;;;;15.81;100.00;98036.31;5092921;28;20118;-95
2022/07/02 02:42:58;;;;;;;6.97;1.77;;;;;;;15.73;100.00;98039.25;5096180;28;20375;-94
2022/07/02 02:45:24;;;;;;;6.38;1.70;;;;;;;15.57;100.00;98048.69;5106170;27;20024;-94
2022/07/02 02:47:50;;;;;;;7.07;1.70;;;;;;;15.53;100.00;98047.94;5088801;28;20045;-94
2022/07/02 02:50:19;;;;;;;10.02;1.80;;;;;;;15.58;100.00;98040.75;5088531;28;20051;-94
2022/07/02 02:52:44;;;;;;;8.43;1.58;;;;;;;15.73;100.00;98038.38;5091713;28;20051;-94
2022/07/02 02:55:10;;;;;;;6.13;1.50;;;;;;;15.59;100.00;98036.31;5091475;28;20040;-94
2022/07/02 02:57:35;;;;;;;8.63;1.70;;;;;;;15.55;100.00;98038.25;5091804;28;20066;-95
2022/07/02 03:00:03;;;;;;;6.85;1.45;;;;;;;15.22;100.00;98040.44;5091156;28;20028;-95
2022/07/02 03:02:29;;;;;;;9.10;2.10;;;;;;;15.58;100.00;98037.25;5091565;28;20020;-93
2022/07/02 03:04:54;;;;;;;6.95;1.50;;;;;;;15.85;100.00;98028.25;5091706;28;21070;-94
2022/07/02 03:07:20;;;;;;;8.15;1.55;;;;;;;15.86;100.00;98027.31;5094418;28;20024;-92
2022/07/02 03:09:47;;;;;;;8.40;1.60;;;;;;;15.50;100.00;98014.78;5094608;28;20040;-92
2022/07/02 03:12:13;;;;;;;8.23;1.60;;;;;;;15.72;100.00;98021.78;5090402;28;20047;-94
2022/07/02 03:14:39;;;;;;;6.18;1.40;;;;;;;15.59;100.00;98021.44;5090291;28;20056;-93
2022/07/02 03:17:04;;;;;;;6.50;1.58;;;;;;;15.69;100.00;98030.63;5088209;28;20028;-92
2022/07/02 03:19:30;;;;;;;9.32;1.60;;;;;;;15.89;100.00;98017.59;5087809;28;20516;-93
2022/07/02 03:21:55;;;;;;;8.73;1.80;;;;;;;15.81;100.00;98026.69;5090421;28;20024;-93
2022/07/02 03:24:21;;;;;;;6.43;1.35;;;;;;;15.88;100.00;98027.28;5089258;28;20048;-93
2022/07/02 03:26:46;;;;;;;9.95;1.63;;;;;;;15.53;100.00;98026.91;5102152;28;20121;-92
2022/07/02 03:29:12;;;;;;;8.50;1.50;;;;;;;15.91;100.00;98027.16;5087081;28;20036;-93
2022/07/02 03:31:37;;;;;;;8.02;1.27;;;;;;;15.38;100.00;98028.41;5086075;28;20028;-92
2022/07/02 03:34:03;;;;;;;8.82;1.60;;;;;;;16.03;100.00;98025.75;5087532;28;20028;-93
2022/07/02 03:36:29;;;;;;;10.27;1.80;;;;;;;15.76;100.00;98033.03;5086342;28;20103;-92
2022/07/02 03:38:55;;;;;;;10.02;1.50;;;;;;;15.86;100.00;98029.09;5091614;28;20384;-93
2022/07/02 03:41:20;;;;;;;8.27;1.83;;;;;;;15.65;100.00;98036.09;5091117;28;20028;-93
2022/07/02 03:43:46;;;;;;;6.47;1.33;;;;;;;15.82;100.00;98030.16;5090121;28;20058;-92
2022/07/02 03:46:12;;;;;;;6.40;1.65;;;;;;;15.50;100.00;98025.31;5097399;28;20484;-92
2022/07/02 03:48:38;;;;;;;5.93;1.60;;;;;;;15.69;100.00;98027.16;5125938;27;20020;-93
2022/07/02 03:51:04;;;;;;;7.35;1.48;;;;;;;16.06;100.00;98030.03;5094048;28;20084;-94
2022/07/02 03:53:29;;;;;;;8.75;1.92;;;;;;;15.80;100.00;98018.88;5094340;28;20682;-94
2022/07/02 03:59:43;;;;;;;7.28;1.85;;;;;;;15.89;100.00;98012.34;5089912;28;20171;-93
2022/07/02 04:02:08;;;;;;;8.00;1.80;;;;;;;15.68;100.00;98013.19;5091040;28;20134;-93
2022/07/02 04:04:34;;;;;;;9.45;1.70;;;;;;;15.79;100.00;98022.38;5093865;28;20028;-93
2022/07/02 04:06:59;;;;;;;7.97;1.75;;;;;;;15.97;100.00;98015.50;5090838;28;20024;-93
2022/07/02 04:09:25;;;;;;;5.93;1.70;;;;;;;15.78;100.00;98011.00;5094035;28;20089;-93
2022/07/02 04:11:54;;;;;;;9.65;1.77;;;;;;;15.79;100.00;98011.84;5090625;28;20036;-93
2022/07/02 04:14:19;;;;;;;6.32;1.63;;;;;;;15.84;100.00;98007.31;5092328;28;20081;-93
2022/07/02 04:16:48;;;;;;;10.57;2.08;;;;;;;15.69;100.00;98004.34;5092306;28;20047;-92
2022/07/02 04:19:14;;;;;;;8.40;2.15;;;;;;;16.16;100.00;98005.06;5092421;28;21616;-92
2022/07/02 04:21:42;;;;;;;8.07;1.83;;;;;;;16.11;100.00;98005.22;5092107;28;20050;-92
2022/07/02 04:24:08;;;;;;;7.53;1.77;;;;;;;15.67;100.00;98008.81;5092676;28;20074;-92
2022/07/02 04:26:33;;;;;;;11.55;2.30;;;;;;;15.77;100.00;98011.94;5090912;28;20016;-92
2022/07/02 04:28:59;;;;;;;7.80;2.03;;;;;;;16.14;100.00;98004.25;5107919;28;20463;-92
2022/07/02 04:31:24;;;;;;;9.60;2.30;;;;;;;15.85;100.00;98012.50;5091900;28;20040;-92
2022/07/02 04:33:52;;;;;;;7.85;1.90;;;;;;;16.00;100.00;98016.22;5093663;28;20082;-92
2022/07/02 04:36:17;;;;;;;7.32;2.00;;;;;;;15.92;100.00;98010.47;5093803;28;20031;-93
2022/07/02 04:38:43;;;;;;;9.70;2.00;;;;;;;15.86;100.00;98013.34;5092115;28;20032;-93
2022/07/02 04:41:08;;;;;;;8.45;1.98;;;;;;;15.89;100.00;98023.72;5092645;28;20050;-92
2022/07/02 04:43:34;;;;;;;7.43;1.92;;;;;;;16.32;100.00;98021.84;5090956;28;20032;-94
2022/07/02 04:45:59;;;;;;;10.13;1.92;;;;;;;15.91;100.00;98021.88;5094195;28;20016;-92
2022/07/02 04:48:25;;;;;;;9.55;2.40;;;;;;;16.38;100.00;98026.84;5093729;28;20066;-93
2022/07/02 04:50:50;;;;;;;8.95;2.20;;;;;;;16.24;100.00;98029.22;5108740;27;20429;-92
2022/07/02 04:53:16;;;;;;;8.52;1.90;;;;;;;16.13;100.00;98018.31;5093727;28;20023;-93
2022/07/02 04:55:43;;;;;;;7.60;2.47;;;;;;;15.66;100.00;98027.28;5111750;27;20755;-93
2022/07/02 04:58:08;;;;;;;8.15;2.42;;;;;;;16.14;100.00;98025.28;5093527;28;20492;-91
2022/07/02 05:00:34;;;;;;;6.88;2.13;;;;;;;16.47;100.00;98024.75;5093588;28;20034;-92
2022/07/02 05:02:59;;;;;;;7.65;2.22;;;;;;;15.75;100.00;98021.63;5090232;28;20031;-92
2022/07/02 05:05:25;;;;;;;8.43;2.50;;;;;;;16.65;100.00;98018.63;5093096;28;20024;-92
2022/07/02 05:07:53;;;;;;;11.10;2.80;;;;;;;16.41;100.00;98015.34;5094762;28;20032;-91
2022/07/02 05:10:19;;;;;;;8.68;2.63;;;;;;;16.40;100.00;98013.63;5087249;28;20028;-92
2022/07/02 05:12:44;;;;;;;8.57;2.40;;;;;;;16.33;100.00;98017.47;5123518;27;20054;-92
2022/07/02 05:15:10;;;;;;;8.73;2.60;;;;;;;16.32;100.00;98007.84;5092194;28;20032;-93
2022/07/02 05:17:35;;;;;;;8.10;2.80;;;;;;;16.03;100.00;98010.84;5089208;28;20070;-92
2022/07/02 05:20:02;;;;;;;12.25;2.90;;;;;;;16.03;100.00;98010.84;5094059;28;20028;-91
2022/07/02 05:22:28;;;;;;;7.90;2.80;;;;;;;15.82;100.00;98007.38;5088370;28;20066;-91
2022/07/02 05:25:57;;;;;;;9.20;2.97;;;;;;;16.12;100.00;98003.47;5082184;28;20422;-91
2022/07/02 05:28:23;;;;;;;8.65;2.80;;;;;;;15.95;100.00;98002.44;5068806;27;20600;-92
2022/07/02 05:30:49;;;;;;;8.32;2.30;;;;;;;15.94;100.00;98005.97;5101105;27;20113;-92
2022/07/02 05:33:18;;;;;;;8.27;2.47;;;;;;;15.74;100.00;98008.56;5085753;28;20026;-91
2022/07/02 05:35:44;;;;;;;9.27;2.88;;;;;;;16.13;100.00;98003.41;5089050;28;20028;-91
2022/07/02 05:38:09;;;;;;;8.98;2.75;;;;;;;16.42;100.00;98009.13;5085987;28;20028;-91
2022/07/02 05:40:35;;;;;;;8.75;2.67;;;;;;;16.45;100.00;98002.88;5083270;28;20192;-91
2022/07/02 05:43:01;;;;;;;9.00;2.95;;;;;;;16.36;100.00;98006.78;5119952;27;20162;-91
2022/07/02 05:45:27;;;;;;;9.57;2.75;;;;;;;16.76;100.00;98010.25;5081087;28;20380;-90
2022/07/02 05:47:52;;;;;;;7.57;2.70;;;;;;;16.30;100.00;98000.03;5099416;27;20035;-89
2022/07/02 05:50:18;;;;;;;10.40;2.63;;;;;;;16.13;100.00;98005.16;5115223;27;20043;-92
2022/07/02 05:52:45;;;;;;;9.63;2.90;;;;;;;16.68;100.00;98010.59;5093788;27;20050;-93
2022/07/02 05:55:10;;;;;;;10.52;2.80;;;;;;;16.81;100.00;98010.03;5091954;28;20075;-92
2022/07/02 05:57:37;;;;;;;8.23;2.50;;;;;;;16.27;100.00;98018.59;5078205;28;20058;-94
2022/07/02 06:00:04;;;;;;;9.88;2.85;;;;;;;16.41;100.00;98025.00;5084372;28;20407;-92
2022/07/02 06:02:31;;;;;;;9.85;3.05;;;;;;;16.69;100.00;98024.63;5081135;28;20055;-92
2022/07/02 06:04:57;;;;;;;6.88;2.22;;;;;;;16.81;100.00;98023.19;5081532;28;20024;-92
2022/07/02 06:07:40;;;;;;;8.38;2.47;;;;;;;16.38;100.00;98023.34;5092925;28;20559;-93
2022/07/02 06:10:07;;;;;;;10.13;2.60;;;;;;;17.01;100.00;98044.22;5083512;28;20024;-92
2022/07/02 06:12:32;;;;;;;13.88;2.70;;;;;;;17.04;100.00;98040.59;5080267;28;20019;-93
2022/07/02 06:14:58;;;;;;;10.43;2.80;;;;;;;16.72;100.00;98033.22;5093800;27;20543;-94
2022/07/02 06:17:24;;;;;;;6.95;2.33;;;;;;;17.09;100.00;98037.75;5082384;28;20119;-93
2022/07/02 06:19:50;;;;;;;7.22;2.22;;;;;;;17.33;100.00;98046.28;5083273;28;20036;-94
2022/07/02 06:22:16;;;;;;;8.77;2.60;;;;;;;17.82;100.00;98048.28;5087211;28;20024;-93
2022/07/02 06:25:07;;;;;;;7.57;2.30;;;;;;;18.33;100.00;98057.16;5086117;28;20361;-93
2022/07/02 06:27:34;;;;;;;10.15;2.13;;;;;;;18.35;100.00;98057.91;5082684;28;20043;-93
2022/07/02 06:30:04;;;;;;;7.38;1.58;;;;;;;17.64;100.00;98050.06;5085826;28;20036;-93
2022/07/02 06:32:30;;;;;;;8.10;2.00;;;;;;;18.31;100.00;98060.78;5087681;28;20358;-94
2022/07/02 06:34:56;;;;;;;9.48;2.42;;;;;;;18.14;100.00;98051.97;5102334;28;20040;-93
2022/07/02 06:37:22;;;;;;;7.32;1.90;;;;;;;18.09;100.00;98067.16;5117517;27;20040;-93
2022/07/02 06:39:54;;;;;;;6.78;2.00;;;;;;;18.73;100.00;98051.53;5093202;28;20039;-92
2022/07/02 06:42:19;;;;;;;10.68;2.13;;;;;;;18.25;100.00;98054.91;5091120;28;20058;-94
2022/07/02 06:44:50;;;;;;;8.80;2.22;;;;;;;18.03;100.00;98065.69;5012739;22;20051;-95
2022/07/02 06:47:19;;;;;;;6.32;1.88;;;;;;;17.52;100.00;98059.41;4972077;28;20080;-95
2022/07/02 06:49:48;;;;;;;7.32;1.95;;;;;;;17.96;100.00;98068.72;4966046;28;20035;-94
2022/07/02 06:52:17;;;;;;;7.45;1.67;;;;;;;17.45;100.00;98052.72;4973525;28;20042;-96
2022/07/02 06:54:43;;;;;;;5.32;1.58;;;;;;;17.51;100.00;98066.47;4972249;28;20030;-96
2022/07/02 06:57:10;;;;;;;6.60;1.80;;;;;;;17.37;100.00;98072.41;4973248;28;20548;-96
2022/07/02 06:59:36;;;;;;;6.85;1.55;;;;;;;17.53;100.00;98072.50;4969690;28;20745;-94
2022/07/02 07:02:02;;;;;;;6.13;1.67;;;;;;;17.50;100.00;98070.03;4971441;28;20069;-95
2022/07/02 07:04:28;;;;;;;6.45;1.73;;;;;;;17.93;100.00;98068.88;4967997;28;20031;-95
2022/07/02 07:06:55;;;;;;;7.07;1.80;;;;;;;17.63;100.00;98064.16;4971127;28;20100;-95
2022/07/02 07:09:23;;;;;;;4.57;1.25;;;;;;;18.50;100.00;98064.19;4968390;28;20413;-96
2022/07/02 07:11:49;;;;;;;5.93;1.40;;;;;;;18.19;100.00;98068.41;4976708;28;20029;-93
2022/07/02 07:14:15;;;;;;;7.57;1.50;;;;;;;18.28;100.00;98072.38;4974022;28;20035;-96
2022/07/02 07:16:41;;;;;;;6.72;1.58;;;;;;;18.51;100.00;98072.94;4977570;28;20023;-96
2022/07/02 07:19:07;;;;;;;7.25;1.33;;;;;;;18.47;100.00;98064.34;4981458;28;20176;-95
2022/07/02 07:21:38;;;;;;;6.10;1.40;;;;;;;18.20;100.00;98064.81;4986389;28;20037;-96
2022/07/02 07:24:07;;;;;;;5.75;1.30;;;;;;;18.20;100.00;98070.09;4980994;28;20042;-96
2022/07/02 07:26:35;;;;;;;5.82;1.20;;;;;;;19.17;100.00;98066.78;4979722;28;20030;-96
2022/07/02 07:29:01;;;;;;;6.55;1.30;;;;;;;18.52;100.00;98078.13;4978534;28;20038;-94
2022/07/02 07:31:27;;;;;;;4.40;1.17;;;;;;;18.88;100.00;98073.66;4978544;28;20035;-96
2022/07/02 07:33:57;;;;;;;3.65;0.98;;;;;;;18.96;100.00;98068.81;4980844;28;20157;-96
2022/07/02 07:36:28;;;;;;;5.78;1.15;;;;;;;18.60;100.00;98073.31;4981618;28;20043;-96
2022/07/02 07:38:54;;;;;;;4.82;0.98;;;;;;;18.79;100.00;98079.41;4983574;28;20039;-94
2022/07/02 07:41:23;;;;;;;4.28;1.00;;;;;;;19.14;100.00;98077.53;4981560;28;20540;-96
2022/07/02 07:43:51;;;;;;;4.65;1.10;;;;;;;19.34;100.00;98086.16;4978282;28;20047;-96
2022/07/02 07:46:24;;;;;;;3.10;0.90;;;;;;;19.22;100.00;98085.03;4982527;28;20078;-96
2022/07/02 07:48:59;;;;;;;3.33;1.00;;;;;;;19.65;100.00;98077.31;5048917;28;20093;-96
2022/07/02 07:51:25;;;;;;;3.22;0.70;;;;;;;19.26;100.00;98087.44;4977859;28;20043;-96
2022/07/02 07:53:51;;;;;;;1.55;0.50;;;;;;;19.87;100.00;98076.97;4981243;28;20061;-95
2022/07/02 07:56:20;;;;;;;1.98;0.68;;;;;;;19.35;100.00;98080.78;4984654;28;20787;-96
2022/07/02 07:58:48;;;;;;;1.58;0.55;;;;;;;18.85;100.00;98087.03;4979381;28;20092;-95
2022/07/02 08:01:14;;;;;;;1.52;0.45;;;;;;;19.39;100.00;98081.47;4979548;28;20038;-95
2022/07/02 08:03:42;;;;;;;1.13;0.45;;;;;;;19.18;100.00;98072.91;4979889;28;20027;-96
2022/07/02 08:06:08;;;;;;;2.17;0.50;;;;;;;19.74;100.00;98079.47;4977912;28;20188;-95
2022/07/02 08:08:34;;;;;;;0.73;0.38;;;;;;;19.40;100.00;98078.75;4976754;28;20491;-94
2022/07/02 08:11:00;;;;;;;1.55;0.50;;;;;;;19.35;100.00;98083.44;4985962;28;20023;-95
2022/07/02 08:13:26;;;;;;;1.80;0.50;;;;;;;20.28;100.00;98078.16;4978272;28;20054;-96
2022/07/02 08:15:52;;;;;;;0.60;0.40;;;;;;;20.61;100.00;98087.63;4979243;28;20681;-95
2022/07/02 08:18:17;;;;;;;0.90;0.40;;;;;;;20.15;100.00;98080.66;4983507;28;20099;-96
2022/07/02 08:20:43;;;;;;;2.38;0.63;;;;;;;20.57;100.00;98079.03;4979400;28;20057;-96
2022/07/02 08:23:08;;;;;;;1.55;0.50;;;;;;;20.49;100.00;98081.31;4974237;28;20038;-96
2022/07/02 08:25:34;;;;;;;2.45;0.60;;;;;;;20.89;100.00;98092.16;4984561;28;20029;-95
2022/07/02 08:27:59;;;;;;;1.88;0.60;;;;;;;20.34;100.00;98088.38;4975769;28;20026;-96
2022/07/02 08:30:25;;;;;;;2.13;0.60;;;;;;;20.59;100.00;98084.25;4973129;28;20039;-95
2022/07/02 08:32:51;;;;;;;3.33;0.57;;;;;;;20.56;100.00;98089.75;4975862;28;20061;-95
2022/07/02 08:35:17;;;;;;;2.55;0.70;;;;;;;19.10;100.00;98082.13;4984885;28;20027;-94
2022/07/02 08:37:43;;;;;;;1.73;0.45;;;;;;;19.40;100.00;98075.22;4977521;28;20042;-96
2022/07/02 08:40:09;;;;;;;2.80;0.70;;;;;;;20.12;100.00;98081.72;4974173;28;20592;-95
2022/07/02 08:42:35;;;;;;;2.92;0.60;;;;;;;19.94;100.00;98074.84;4973780;28;20498;-95
2022/07/02 08:45:03;;;;;;;3.60;1.00;;;;;;;19.72;100.00;98077.84;4974520;28;20047;-95
2022/07/02 08:47:35;;;;;;;3.63;0.90;;;;;;;20.41;100.00;98095.00;4986638;28;20083;-96
2022/07/02 08:50:01;;;;;;;1.20;0.63;;;;;;;20.17;100.00;98081.44;4975616;28;20037;-95
2022/07/02 08:52:27;;;;;;;3.47;0.82;;;;;;;20.45;100.00;98088.56;4976309;28;20109;-95
2022/07/02 08:54:54;;;;;;;3.88;0.85;;;;;;;20.03;100.00;98092.84;4975339;28;20050;-96
2022/07/02 08:57:27;;;;;;;2.83;0.70;;;;;;;20.34;100.00;98091.00;4980103;28;20184;-96
2022/07/02 08:59:54;;;;;;;3.00;0.90;;;;;;;20.37;100.00;98093.47;4986172;28;20821;-96
2022/07/02 09:02:20;;;;;;;4.32;0.90;;;;;;;20.37;100.00;98090.81;4979275;28;20054;-96
2022/07/02 09:04:48;;;;;;;3.33;0.88;;;;;;;20.26;100.00;98103.84;4981691;28;20034;-94
2022/07/02 09:07:15;;;;;;;4.25;1.10;;;;;;;20.80;100.00;98098.84;4973796;28;20141;-96
2022/07/02 09:09:42;;;;;;;3.75;0.63;;;;;;;20.58;100.00;98104.56;4974735;28;20027;-94
2022/07/02 09:12:11;;;;;;;3.90;0.85;;;;;;;20.12;100.00;98102.03;4971719;28;20123;-94
2022/07/02 09:14:41;;;;;;;4.03;0.90;;;;;;;20.48;100.00;98103.44;4971632;28;20651;-95
2022/07/02 09:17:08;;;;;;;4.43;0.73;;;;;;;20.16;100.00;98102.72;4968504;28;20039;-95
2022/07/02 09:19:34;;;;;;;4.13;0.93;;;;;;;20.17;100.00;98094.66;4970595;28;20022;-94
2022/07/02 09:22:00;;;;;;;3.90;1.02;;;;;;;20.59;100.00;98092.19;4969221;28;20077;-95
2022/07/02 09:24:42;;;;;;;3.90;0.90;;;;;;;20.47;100.00;98088.47;4976758;28;20053;-93
2022/07/02 09:27:12;;;;;;;5.78;1.13;;;;;;;20.34;100.00;98090.19;4969250;28;20027;-95
2022/07/02 09:29:53;;;;;;;3.33;0.98;;;;;;;20.43;100.00;98095.78;4973519;28;20130;-95
2022/07/02 09:32:20;;;;;;;4.70;0.93;;;;;;;20.81;100.00;98091.78;4973219;28;20034;-95
2022/07/02 09:34:50;;;;;;;4.90;1.05;;;;;;;21.26;100.00;98089.81;4970929;28;20062;-96
2022/07/02 09:37:18;;;;;;;4.75;1.00;;;;;;;20.34;100.00;98091.00;4984828;28;20031;-94
2022/07/02 09:39:45;;;;;;;5.53;0.98;;;;;;;20.95;100.00;98083.81;4965817;28;20035;-95
2022/07/02 09:42:12;;;;;;;4.70;1.00;;;;;;;21.47;100.00;98084.97;4971546;28;20096;-96
2022/07/02 09:44:47;;;;;;;5.50;1.13;;;;;;;20.53;100.00;98105.78;4974088;28;20058;-96
2022/07/02 09:47:13;;;;;;;5.75;1.00;;;;;;;20.78;100.00;98098.09;4974046;28;20030;-93
2022/07/02 09:49:49;;;;;;;4.13;1.02;;;;;;;21.65;100.00;98101.50;4972508;28;20054;-95
2022/07/02 09:52:16;;;;;;;5.97;1.48;;;;;;;20.72;100.00;98114.38;4979284;28;20037;-95
2022/07/02 09:54:42;;;;;;;5.07;1.00;;;;;;;21.55;100.00;98108.34;4968400;28;20031;-95
2022/07/02 09:57:10;;;;;;;5.15;1.23;;;;;;;20.69;100.00;98106.59;4973007;28;20034;-95
2022/07/02 09:59:37;;;;;;;4.70;1.10;;;;;;;21.01;100.00;98117.03;4971829;28;20042;-96
2022/07/02 10:02:03;;;;;;;5.45;1.00;;;;;;;20.80;100.00;98104.16;4965622;28;20509;-93
2022/07/02 10:04:31;;;;;;;6.63;1.13;;;;;;;21.53;100.00;98106.75;4969706;28;20027;-92
2022/07/02 10:06:58;;;;;;;5.38;1.10;;;;;;;20.77;100.00;98109.63;4964114;28;20031;-95
2022/07/02 10:09:25;;;;;;;6.07;1.00;;;;;;;21.75;100.00;98119.47;4965161;28;20092;-96
2022/07/02 10:11:51;;;;;;;3.33;1.00;;;;;;;21.66;100.00;98112.97;4962347;28;20050;-96
2022/07/02 10:14:20;;;;;;;5.32;1.10;;;;;;;22.16;100.00;98116.75;4980722;28;20026;-96
2022/07/02 10:16:47;;;;;;;5.00;1.15;;;;;;;22.53;100.00;98123.22;4965247;28;20147;-95
2022/07/02 10:19:14;;;;;;;5.50;1.13;;;;;;;22.70;100.00;98135.34;4974204;28;20094;-95
2022/07/02 10:21:40;;;;;;;4.63;1.20;;;;;;;22.55;100.00;98140.75;4973890;28;20058;-96
2022/07/02 10:24:14;;;;;;;4.68;1.10;;;;;;;24.08;100.00;98151.31;4970484;28;20141;-96
2022/07/02 10:26:41;;;;;;;4.28;1.15;;;;;;;23.53;100.00;98126.88;4977068;28;20023;-96
2022/07/02 10:29:09;;;;;;;5.20;1.10;;;;;;;22.96;100.00;98144.19;4975155;28;20030;-96
2022/07/02 10:31:40;;;;;;;5.03;1.15;;;;;;;24.75;100.00;98155.19;4983189;28;20057;-96
2022/07/02 10:34:15;;;;;;;5.80;1.48;;;;;;;23.37;100.00;98143.09;4972156;28;20121;-95
2022/07/02 10:36:41;;;;;;;5.22;1.30;;;;;;;23.09;100.00;98137.06;4966621;28;20026;-96
2022/07/02 10:39:07;;;;;;;7.90;1.30;;;;;;;22.90;100.00;98136.63;4972180;28;20026;-95
2022/07/02 10:41:32;;;;;;;4.00;1.00;;;;;;;23.32;100.00;98129.28;4971921;28;20510;-95
2022/07/02 10:43:59;;;;;;;5.00;1.38;;;;;;;22.94;100.00;98141.63;4969687;28;20063;-94
2022/07/02 10:46:27;;;;;;;5.95;1.30;;;;;;;23.31;100.00;98128.44;4973303;28;20092;-96
2022/07/02 10:48:55;;;;;;;6.18;1.20;;;;;;;23.69;100.00;98132.78;4971514;28;20050;-95
2022/07/02 10:51:33;;;;;;;3.63;0.90;;;;;;;23.45;100.00;98137.22;4972407;28;20049;-96
2022/07/02 10:54:01;;;;;;;7.88;1.40;;;;;;;23.76;100.00;98130.53;4970628;28;20042;-96
2022/07/02 10:56:28;;;;;;;4.90;1.05;;;;;;;24.98;100.00;98156.06;4967804;28;20475;-95
2022/07/02 10:58:53;;;;;;;5.03;1.30;;;;;;;23.13;100.00;98137.69;4971975;28;20101;-94
2022/07/02 11:01:21;;;;;;;3.78;0.95;;;;;;;24.59;100.00;98141.28;4972601;28;20027;-96
2022/07/02 11:04:03;;;;;;;5.28;1.23;;;;;;;24.09;100.00;98136.16;4970510;28;20031;-96
2022/07/02 11:06:30;;;;;;;8.45;1.20;;;;;;;22.98;100.00;98142.28;5052258;28;20043;-96
2022/07/02 11:09:04;;;;;;;6.72;1.20;;;;;;;22.17;100.00;98137.06;4984316;28;20306;-95
2022/07/02 11:11:34;;;;;;;5.00;0.98;;;;;;;23.18;100.00;98144.41;4968036;28;20066;-95
2022/07/02 11:14:07;;;;;;;5.32;1.20;;;;;;;24.46;100.00;98154.72;4974522;28;20050;-95
2022/07/02 11:16:38;;;;;;;6.38;1.20;;;;;;;23.25;100.00;98151.97;4972983;28;20522;-92
2022/07/02 11:19:25;;;;;;;4.68;0.98;;;;;;;23.13;100.00;98159.84;4970813;28;20031;-95
2022/07/02 11:21:58;;;;;;;6.13;1.25;;;;;;;23.20;100.00;98138.13;4967260;28;20037;-96
2022/07/02 11:24:26;;;;;;;5.40;1.20;;;;;;;22.95;100.00;98131.84;4967371;28;20041;-94
2022/07/02 11:26:52;;;;;;;5.40;1.17;;;;;;;22.82;100.00;98153.13;4974610;28;20126;-95
2022/07/02 11:29:18;;;;;;;5.72;1.17;;;;;;;23.39;100.00;98149.16;4968175;28;20114;-89
2022/07/02 11:31:49;;;;;;;6.45;1.20;;;;;;;24.74;100.00;98160.63;4962209;28;20109;-94
2022/07/02 11:34:16;;;;;;;6.82;1.30;;;;;;;23.92;100.00;98156.06;4969691;28;20054;-94